createdAt,value
2022-10-14T00:01:37.359Z,46.03
2022-10-14T00:04:04.768Z,43.63
2022-10-14T00:06:31.821Z,43.75
2022-10-14T00:09:02.792Z,37.88
2022-10-14T00:11:29.937Z,36.58
2022-10-14T00:14:04.025Z,35.90
2022-10-14T00:18:56.992Z,31.73
2022-10-14T00:21:25.101Z,36.35
2022-10-14T00:23:51.443Z,35.75
2022-10-14T00:26:20.025Z,35.25
2022-10-14T00:28:46.794Z,35.53
2022-10-14T00:31:13.177Z,33.42
2022-10-14T00:33:39.488Z,31.55
2022-10-14T00:36:06.880Z,34.83
2022-10-14T00:38:33.637Z,31.48
2022-10-14T00:40:59.964Z,32.38
2022-10-14T00:43:27.075Z,30.77
2022-10-14T00:45:53.346Z,31.45
2022-10-14T00:48:21.026Z,34.78
2022-10-14T00:50:52.734Z,34.83
2022-10-14T00:53:19.555Z,32.53
2022-10-14T00:55:47.872Z,32.30
2022-10-14T00:58:15.145Z,31.23
2022-10-14T01:00:41.782Z,30.60
2022-10-14T01:03:09.850Z,30.80
2022-10-14T01:05:40.931Z,29.98
2022-10-14T01:08:14.917Z,32.90
2022-10-14T01:10:51.243Z,31.17
2022-10-14T01:13:22.533Z,28.77
2022-10-14T01:15:58.674Z,34.50
2022-10-14T01:18:43.812Z,31.75
2022-10-14T01:21:11.751Z,35.75
2022-10-14T01:23:50.936Z,30.98
2022-10-14T01:26:17.174Z,39.47
2022-10-14T01:28:55.808Z,38.83
2022-10-14T01:31:23.581Z,41.10
2022-10-14T01:33:52.572Z,43.47
2022-10-14T01:36:24.299Z,41.00
2022-10-14T01:38:56.908Z,40.47
2022-10-14T01:41:29.673Z,39.47
2022-10-14T01:43:57.746Z,39.72
2022-10-14T01:46:25.436Z,41.92
2022-10-14T01:48:54.950Z,34.72
2022-10-14T01:51:32.196Z,36.15
2022-10-14T01:54:04.661Z,36.20
2022-10-14T01:56:34.973Z,33.65
2022-10-14T01:59:04.905Z,31.83
2022-10-14T02:01:31.913Z,30.90
2022-10-14T02:03:58.250Z,33.28
2022-10-14T02:06:28.373Z,32.85
2022-10-14T02:09:03.520Z,28.38
2022-10-14T02:11:39.461Z,30.60
2022-10-14T02:14:21.280Z,28.35
2022-10-14T02:16:59.547Z,28.63
2022-10-14T02:19:39.517Z,27.83
2022-10-14T02:22:12.202Z,34.33
2022-10-14T02:24:41.633Z,33.40
2022-10-14T02:27:10.913Z,27.38
2022-10-14T02:29:39.907Z,30.67
2022-10-14T02:32:08.038Z,33.20
2022-10-14T02:34:35.108Z,33.42
2022-10-14T02:37:01.619Z,26.33
2022-10-14T02:39:33.258Z,28.05
2022-10-14T02:41:59.553Z,29.73
2022-10-14T02:44:25.810Z,34.05
2022-10-14T02:46:54.215Z,31.17
2022-10-14T02:49:20.572Z,29.42
2022-10-14T02:51:46.882Z,31.23
2022-10-14T02:54:13.229Z,29.90
2022-10-14T02:56:41.021Z,30.83
2022-10-14T02:59:07.429Z,34.00
2022-10-14T03:01:37.396Z,28.75
2022-10-14T03:04:05.507Z,31.95
2022-10-14T03:06:32.445Z,31.10
2022-10-14T03:08:59.620Z,28.75
2022-10-14T03:11:26.273Z,30.38
2022-10-14T03:13:56.165Z,30.98
2022-10-14T03:16:22.506Z,29.45
2022-10-14T03:18:48.935Z,30.40
2022-10-14T03:21:21.782Z,27.08
2022-10-14T03:23:48.427Z,28.60
2022-10-14T03:26:14.826Z,27.83
2022-10-14T03:28:45.598Z,34.75
2022-10-14T03:31:25.702Z,27.38
2022-10-14T03:34:03.490Z,29.95
2022-10-14T03:36:31.050Z,26.48
2022-10-14T03:38:57.741Z,32.67
2022-10-14T03:41:36.421Z,27.83
2022-10-14T03:44:04.769Z,26.50
2022-10-14T03:46:32.724Z,32.00
2022-10-14T03:49:00.309Z,25.15
2022-10-14T03:51:27.133Z,25.92
2022-10-14T03:54:04.818Z,28.95
2022-10-14T03:56:32.221Z,25.58
2022-10-14T03:58:59.573Z,27.25
2022-10-14T04:01:26.171Z,27.15
2022-10-14T04:04:10.101Z,29.23
2022-10-14T04:06:36.688Z,24.85
2022-10-14T04:09:05.428Z,30.40
2022-10-14T04:11:36.228Z,29.13
2022-10-14T04:14:06.676Z,24.88
2022-10-14T04:16:39.389Z,27.55
2022-10-14T04:19:11.640Z,25.33
2022-10-14T04:21:40.206Z,29.08
2022-10-14T04:24:08.619Z,27.25
2022-10-14T04:26:45.725Z,28.27
2022-10-14T04:29:20.108Z,27.48
2022-10-14T04:31:54.885Z,32.17
2022-10-14T04:34:22.894Z,27.40
2022-10-14T04:36:49.269Z,27.92
2022-10-14T04:39:43.576Z,29.77
2022-10-14T04:42:10.677Z,34.05
2022-10-14T04:44:37.084Z,34.63
2022-10-14T04:47:03.990Z,28.23
2022-10-14T04:49:30.636Z,30.77
2022-10-14T04:52:17.200Z,34.17
2022-10-14T04:54:50.251Z,33.78
2022-10-14T04:57:21.889Z,27.75
2022-10-14T04:59:48.468Z,32.00
2022-10-14T05:02:33.245Z,32.85
2022-10-14T05:05:01.274Z,31.67
2022-10-14T05:07:31.820Z,35.65
2022-10-14T05:10:10.216Z,33.47
2022-10-14T05:12:40.903Z,31.88
2022-10-14T05:15:07.588Z,34.05
2022-10-14T05:17:44.350Z,33.75
2022-10-14T05:20:12.754Z,35.03
2022-10-14T05:22:40.942Z,38.47
2022-10-14T05:25:07.449Z,29.38
2022-10-14T05:27:33.740Z,32.80
2022-10-14T05:30:02.597Z,32.65
2022-10-14T05:32:29.921Z,32.13
2022-10-14T05:35:02.041Z,33.85
2022-10-14T05:37:36.309Z,32.83
2022-10-14T05:40:02.718Z,37.58
2022-10-14T05:42:32.068Z,33.53
2022-10-14T05:44:58.971Z,42.63
2022-10-14T05:47:27.638Z,42.38
2022-10-14T05:49:59.161Z,47.40
2022-10-14T05:52:25.700Z,44.17
2022-10-14T05:54:53.420Z,42.83
2022-10-14T05:57:23.929Z,50.33
2022-10-14T05:59:50.358Z,42.67
2022-10-14T06:02:16.670Z,40.65
2022-10-14T06:04:43.092Z,41.78
2022-10-14T06:07:10.262Z,41.67
2022-10-14T06:09:38.214Z,44.63
2022-10-14T06:12:05.045Z,39.72
2022-10-14T06:14:31.453Z,46.65
2022-10-14T06:16:58.770Z,41.47
2022-10-14T06:19:25.188Z,44.78
2022-10-14T06:21:51.497Z,49.15
2022-10-14T06:24:17.799Z,47.88
2022-10-14T06:26:44.241Z,54.15
2022-10-14T06:29:10.781Z,53.50
2022-10-14T06:31:37.056Z,63.08
2022-10-14T06:34:06.508Z,54.67
2022-10-14T06:36:33.122Z,61.33
2022-10-14T06:38:59.484Z,62.42
2022-10-14T06:41:25.825Z,62.15
2022-10-14T06:43:52.477Z,63.85
2022-10-14T06:46:18.793Z,64.20
2022-10-14T06:48:50.041Z,61.00
2022-10-14T06:51:16.669Z,61.53
2022-10-14T06:53:43.180Z,60.08
2022-10-14T06:56:11.435Z,56.70
2022-10-14T06:58:37.857Z,67.30
2022-10-14T07:01:05.408Z,61.60
2022-10-14T07:03:31.812Z,66.70
2022-10-14T07:05:58.109Z,66.40
2022-10-14T07:08:24.388Z,67.53
2022-10-14T07:10:50.714Z,67.55
2022-10-14T07:13:17.012Z,61.67
2022-10-14T07:15:43.268Z,64.10
2022-10-14T07:18:09.532Z,62.08
2022-10-14T07:20:35.833Z,59.25
2022-10-14T07:23:02.243Z,68.70
2022-10-14T07:25:28.643Z,61.47
2022-10-14T07:27:54.928Z,68.05
2022-10-14T07:30:21.428Z,71.75
2022-10-14T07:32:48.058Z,77.55
2022-10-14T07:35:15.475Z,79.47
2022-10-14T07:37:42.861Z,64.80
2022-10-14T07:40:09.814Z,88.22
2022-10-14T07:42:36.124Z,67.43
2022-10-14T07:45:02.668Z,69.07
2022-10-14T07:47:29.005Z,78.97
2022-10-14T07:49:55.426Z,70.13
2022-10-14T07:52:21.692Z,78.45
2022-10-14T07:54:48.032Z,70.85
2022-10-14T07:57:14.345Z,66.30
2022-10-14T07:59:40.798Z,62.80
2022-10-14T08:02:07.197Z,56.25
2022-10-14T08:04:33.856Z,49.38
2022-10-14T08:07:01.235Z,54.63
2022-10-14T08:09:28.667Z,64.43
2022-10-14T08:11:55.052Z,57.35
2022-10-14T08:14:22.423Z,68.82
2022-10-14T08:16:48.750Z,66.70
2022-10-14T08:19:15.433Z,61.28
2022-10-14T08:21:42.844Z,70.63
2022-10-14T08:24:09.770Z,73.60
2022-10-14T08:26:37.566Z,70.05
2022-10-14T08:29:05.226Z,69.43
2022-10-14T08:31:31.747Z,75.80
2022-10-14T08:33:58.217Z,73.20
2022-10-14T08:36:24.546Z,68.50
2022-10-14T08:38:51.926Z,72.03
2022-10-14T08:41:36.890Z,72.57
2022-10-14T08:44:22.889Z,80.32
2022-10-14T08:46:54.399Z,75.25
2022-10-14T08:49:20.794Z,83.28
2022-10-14T08:51:49.264Z,72.70
2022-10-14T08:54:18.312Z,83.65
2022-10-14T08:56:45.732Z,84.18
2022-10-14T08:59:16.272Z,79.60
2022-10-14T09:01:53.929Z,91.20
2022-10-14T09:04:21.268Z,85.40
2022-10-14T09:06:48.942Z,71.70
2022-10-14T09:09:40.171Z,67.90
2022-10-14T09:12:11.610Z,63.20
2022-10-14T09:14:42.465Z,57.58
2022-10-14T09:17:24.753Z,54.17
2022-10-14T09:20:17.426Z,57.00
2022-10-14T09:22:44.495Z,56.22
2022-10-14T09:25:17.691Z,67.07
2022-10-14T09:27:44.057Z,60.97
2022-10-14T09:30:14.593Z,65.05
2022-10-14T09:32:49.777Z,74.18
2022-10-14T09:35:25.142Z,82.03
2022-10-14T09:37:51.948Z,72.78
2022-10-14T09:40:22.082Z,78.53
2022-10-14T09:43:03.699Z,83.10
2022-10-14T09:45:45.682Z,84.75
2022-10-14T09:48:15.240Z,76.95
2022-10-14T09:50:43.408Z,71.30
2022-10-14T09:53:24.229Z,67.38
2022-10-14T09:55:55.211Z,74.18
2022-10-14T09:58:35.393Z,70.88
2022-10-14T10:01:02.330Z,68.10
2022-10-14T10:03:32.532Z,65.95
2022-10-14T10:06:04.079Z,65.60
2022-10-14T10:08:30.848Z,64.97
2022-10-14T10:11:03.558Z,59.72
2022-10-14T10:13:43.242Z,65.55
2022-10-14T10:16:34.583Z,55.20
2022-10-14T10:19:20.336Z,56.08
2022-10-14T10:21:47.542Z,62.63
2022-10-14T10:24:26.127Z,56.45
2022-10-14T10:26:55.057Z,59.55
2022-10-14T10:29:25.694Z,65.97
2022-10-14T10:32:11.972Z,62.65
2022-10-14T10:34:44.002Z,56.35
2022-10-14T10:37:22.484Z,59.15
2022-10-14T10:40:02.605Z,57.33
2022-10-14T10:42:34.437Z,61.05
2022-10-14T10:45:00.791Z,56.95
2022-10-14T10:47:46.115Z,56.17
2022-10-14T10:50:15.553Z,55.38
2022-10-14T10:53:01.292Z,56.42
2022-10-14T10:58:35.323Z,52.22
2022-10-14T11:01:09.736Z,50.08
2022-10-14T11:03:45.215Z,47.42
2022-10-14T11:06:41.636Z,41.60
2022-10-14T11:09:47.979Z,43.70
2022-10-14T11:12:15.504Z,46.35
2022-10-14T11:15:02.973Z,51.80
2022-10-14T11:17:37.308Z,42.70
2022-10-14T11:20:04.209Z,44.17
2022-10-14T11:22:44.244Z,41.70
2022-10-14T11:25:25.906Z,42.80
2022-10-14T11:28:04.392Z,44.30
2022-10-14T11:31:00.269Z,35.80
2022-10-14T11:33:39.802Z,36.85
2022-10-14T11:36:12.421Z,32.30
2022-10-14T11:38:41.810Z,35.42
2022-10-14T11:41:08.309Z,28.38
2022-10-14T11:43:41.546Z,25.83
2022-10-14T11:46:07.986Z,27.27
2022-10-14T11:48:38.305Z,28.92
2022-10-14T11:51:11.137Z,28.98
2022-10-14T11:53:41.006Z,23.17
2022-10-14T11:58:38.632Z,21.48
2022-10-14T12:01:09.474Z,23.23
2022-10-14T12:03:54.030Z,21.20
2022-10-14T12:06:46.367Z,23.42
2022-10-14T12:09:15.711Z,19.77
2022-10-14T12:11:51.141Z,20.17
2022-10-14T12:14:23.712Z,19.98
2022-10-14T12:16:52.380Z,20.77
2022-10-14T12:19:24.012Z,22.90
2022-10-14T12:21:50.838Z,20.58
2022-10-14T12:24:19.468Z,23.95
2022-10-14T12:26:52.120Z,21.15
2022-10-14T12:29:20.209Z,19.42
2022-10-14T12:31:50.868Z,23.35
2022-10-14T12:34:26.136Z,19.92
2022-10-14T12:36:52.395Z,21.48
2022-10-14T12:39:18.689Z,20.77
2022-10-14T12:41:54.112Z,21.48
2022-10-14T12:44:21.392Z,20.80
2022-10-14T12:46:49.185Z,21.45
2022-10-14T12:49:26.985Z,22.90
2022-10-14T12:51:57.433Z,22.98
2022-10-14T12:54:25.751Z,23.55
2022-10-14T12:57:03.364Z,23.00
2022-10-14T12:59:37.657Z,21.38
2022-10-14T13:02:24.628Z,28.73
2022-10-14T13:04:52.324Z,31.55
2022-10-14T13:07:39.810Z,23.70
2022-10-14T13:10:25.149Z,27.50
2022-10-14T13:12:51.438Z,26.67
2022-10-14T13:15:36.296Z,24.85
2022-10-14T13:18:21.546Z,24.23
2022-10-14T13:20:49.837Z,24.90
2022-10-14T13:23:19.177Z,22.10
2022-10-14T13:25:46.065Z,19.65
2022-10-14T13:28:23.104Z,22.95
2022-10-14T13:30:54.982Z,19.95
2022-10-14T13:33:33.530Z,22.58
2022-10-14T13:36:09.244Z,23.58
2022-10-14T13:38:37.938Z,24.23
2022-10-14T13:41:05.113Z,22.90
2022-10-14T13:43:36.220Z,23.92
2022-10-14T13:48:37.572Z,17.60
2022-10-14T13:51:24.389Z,16.65
2022-10-14T13:54:16.430Z,20.05
2022-10-14T13:56:43.406Z,13.85
2022-10-14T13:59:43.816Z,12.85
2022-10-14T14:02:15.440Z,11.73
2022-10-14T14:04:46.454Z,12.45
2022-10-14T14:07:58.956Z,12.43
2022-10-14T14:10:05.448Z,12.45
2022-10-14T14:12:31.834Z,16.25
2022-10-14T14:14:59.306Z,16.77
2022-10-14T14:17:27.588Z,16.73
2022-10-14T14:19:54.253Z,17.65
2022-10-14T14:22:27.603Z,21.33
2022-10-14T14:25:31.888Z,16.80
2022-10-14T14:27:56.687Z,16.60
2022-10-14T14:30:27.726Z,16.90
2022-10-14T14:32:55.388Z,16.25
2022-10-14T14:35:22.922Z,15.75
2022-10-14T14:37:56.868Z,15.60
2022-10-14T14:40:24.720Z,15.95
2022-10-14T14:42:55.987Z,15.25
2022-10-14T14:45:25.450Z,17.63
2022-10-14T14:47:53.141Z,17.77
2022-10-14T14:50:31.178Z,15.00
2022-10-14T14:53:01.434Z,15.32
2022-10-14T14:55:34.802Z,15.48
2022-10-14T14:58:01.929Z,16.63
2022-10-14T15:00:30.561Z,20.88
2022-10-14T15:03:01.126Z,22.83
2022-10-14T15:05:27.810Z,21.77
2022-10-14T15:07:54.399Z,22.88
2022-10-14T15:10:22.948Z,22.92
2022-10-14T15:12:53.890Z,25.10
2022-10-14T15:15:26.099Z,26.17
2022-10-14T15:18:04.946Z,25.10
2022-10-14T15:20:35.823Z,26.65
2022-10-14T15:23:03.267Z,27.17
2022-10-14T15:25:30.557Z,27.23
2022-10-14T15:27:57.930Z,27.52
2022-10-14T15:30:35.273Z,28.27
2022-10-14T15:33:12.004Z,29.52
2022-10-14T15:35:38.341Z,28.10
2022-10-14T15:38:16.386Z,30.77
2022-10-14T15:40:43.128Z,27.67
2022-10-14T15:43:13.083Z,36.63
2022-10-14T15:45:42.582Z,33.40
2022-10-14T15:48:15.598Z,31.88
2022-10-14T15:50:43.807Z,39.10
2022-10-14T15:53:10.600Z,33.22
2022-10-14T15:55:36.939Z,33.95
2022-10-14T15:58:05.147Z,34.08
2022-10-14T16:00:31.966Z,34.75
2022-10-14T16:03:03.646Z,33.35
2022-10-14T16:05:29.957Z,35.33
2022-10-14T16:07:56.711Z,27.73
2022-10-14T16:10:23.821Z,31.55
2022-10-14T16:12:50.517Z,31.17
2022-10-14T16:15:16.766Z,32.15
2022-10-14T16:17:43.032Z,34.47
2022-10-14T16:20:09.917Z,32.25
2022-10-14T16:22:37.305Z,31.45
2022-10-14T16:25:03.795Z,30.25
2022-10-14T16:27:30.068Z,29.75
2022-10-14T16:29:57.329Z,26.80
2022-10-14T16:32:24.018Z,31.45
2022-10-14T16:34:51.364Z,33.88
2022-10-14T16:37:17.624Z,26.52
2022-10-14T16:39:44.045Z,24.70
2022-10-14T16:42:11.401Z,29.15
2022-10-14T16:44:37.762Z,28.88
2022-10-14T16:47:16.118Z,27.85
2022-10-14T16:49:51.921Z,26.67
2022-10-14T16:52:18.648Z,26.27
2022-10-14T16:54:44.971Z,26.80
2022-10-14T16:57:11.281Z,25.23
2022-10-14T16:59:37.614Z,28.85
2022-10-14T17:02:04.428Z,25.70
2022-10-14T17:04:31.806Z,24.30
2022-10-14T17:06:59.184Z,27.55
2022-10-14T17:11:59.936Z,23.00
2022-10-14T17:14:27.038Z,25.55
2022-10-14T17:16:53.483Z,25.23
2022-10-14T17:19:20.179Z,28.00
2022-10-14T17:21:48.646Z,25.98
2022-10-14T17:24:16.795Z,25.48
2022-10-14T17:26:44.081Z,29.02
2022-10-14T17:29:10.440Z,28.45
2022-10-14T17:31:38.798Z,27.58
2022-10-14T17:34:08.523Z,24.65
2022-10-14T17:36:35.030Z,23.60
2022-10-14T17:39:01.363Z,30.33
2022-10-14T17:41:28.525Z,25.48
2022-10-14T17:43:55.718Z,22.80
2022-10-14T17:46:24.692Z,22.17
2022-10-14T17:48:52.556Z,21.98
2022-10-14T17:51:22.624Z,24.45
2022-10-14T17:53:48.986Z,25.45
2022-10-14T17:56:15.526Z,30.02
2022-10-14T17:58:41.913Z,32.63
2022-10-14T18:01:09.655Z,25.67
2022-10-14T18:03:36.806Z,27.40
2022-10-14T18:06:10.503Z,25.00
2022-10-14T18:08:36.886Z,24.35
2022-10-14T18:11:08.525Z,27.33
2022-10-14T18:13:37.616Z,27.73
2022-10-14T18:16:06.788Z,27.00
2022-10-14T18:18:34.625Z,26.75
2022-10-14T18:21:01.690Z,27.48
2022-10-14T18:23:39.393Z,29.90
2022-10-14T18:26:09.453Z,27.00
2022-10-14T18:28:41.472Z,28.60
2022-10-14T18:31:08.974Z,30.00
2022-10-14T18:33:36.141Z,24.17
2022-10-14T18:36:02.945Z,24.33
2022-10-14T18:38:29.216Z,24.40
2022-10-14T18:41:03.028Z,21.88
2022-10-14T18:43:29.582Z,19.25
2022-10-14T18:46:06.502Z,20.20
2022-10-14T18:48:33.296Z,20.85
2022-10-14T18:51:00.534Z,21.33
2022-10-14T18:53:27.245Z,20.42
2022-10-14T18:55:56.811Z,20.33
2022-10-14T18:58:25.974Z,21.55
2022-10-14T19:00:52.720Z,21.50
2022-10-14T19:03:19.009Z,21.88
2022-10-14T19:05:46.986Z,19.20
2022-10-14T19:10:45.077Z,17.02
2022-10-14T19:13:12.118Z,15.55
2022-10-14T19:15:46.128Z,16.60
2022-10-14T19:18:15.131Z,14.80
2022-10-14T19:20:41.792Z,16.10
2022-10-14T19:23:08.197Z,13.85
2022-10-14T19:25:36.018Z,13.02
2022-10-14T19:28:02.297Z,12.23
2022-10-14T19:30:28.582Z,13.25
2022-10-14T19:32:54.857Z,12.95
2022-10-14T19:35:21.581Z,13.57
2022-10-14T19:37:48.041Z,13.15
2022-10-14T19:40:14.330Z,14.75
2022-10-14T19:42:40.601Z,14.10
2022-10-14T19:45:07.057Z,14.05
2022-10-14T19:47:33.332Z,12.30
2022-10-14T19:49:59.596Z,11.85
2022-10-14T19:52:25.917Z,11.13
2022-10-14T19:54:52.188Z,11.27
2022-10-14T19:57:18.462Z,11.38
2022-10-14T19:59:44.737Z,12.02
2022-10-14T20:02:10.999Z,11.00
2022-10-14T20:04:37.284Z,9.68
2022-10-14T20:07:03.556Z,10.10
2022-10-14T20:09:29.885Z,11.02
2022-10-14T20:11:56.192Z,7.57
2022-10-14T20:14:22.493Z,7.53
2022-10-14T20:16:52.309Z,7.03
2022-10-14T20:19:21.478Z,8.25
2022-10-14T20:21:47.738Z,6.00
2022-10-14T20:24:14.041Z,5.53
2022-10-14T20:26:41.327Z,6.07
2022-10-14T20:29:07.596Z,5.30
2022-10-14T20:31:33.881Z,5.00
2022-10-14T20:34:00.141Z,5.30
2022-10-14T20:36:26.463Z,5.00
2022-10-14T20:38:52.795Z,6.57
2022-10-14T20:41:20.894Z,4.95
2022-10-14T20:43:47.413Z,5.82
2022-10-14T20:46:13.716Z,5.53
2022-10-14T20:48:40.276Z,5.95
2022-10-14T20:51:07.994Z,5.30
2022-10-14T20:53:34.418Z,5.38
2022-10-14T20:56:04.765Z,4.15
2022-10-14T20:58:31.080Z,4.95
2022-10-14T21:01:17.094Z,4.25
2022-10-14T21:03:45.384Z,5.18
2022-10-14T21:06:13.749Z,3.78
2022-10-14T21:08:40.154Z,5.10
2022-10-14T21:11:10.562Z,4.35
2022-10-14T21:13:41.132Z,8.68
2022-10-14T21:16:15.073Z,10.20
2022-10-14T21:18:44.357Z,10.32
2022-10-14T21:21:12.865Z,13.90
2022-10-14T21:23:42.877Z,8.80
2022-10-14T21:26:09.202Z,13.77
2022-10-14T21:28:35.534Z,14.40
2022-10-14T21:31:14.772Z,12.45
2022-10-14T21:33:43.870Z,11.00
2022-10-14T21:36:11.424Z,17.05
2022-10-14T21:38:37.947Z,13.82
2022-10-14T21:41:04.662Z,12.40
2022-10-14T21:43:31.734Z,13.68
2022-10-14T21:46:05.360Z,16.65
2022-10-14T21:48:31.679Z,16.50
2022-10-14T21:51:06.869Z,15.57
2022-10-14T21:53:33.685Z,18.17
2022-10-14T21:56:00.304Z,17.75
2022-10-14T21:58:26.643Z,16.20
2022-10-14T22:01:00.634Z,15.20
2022-10-14T22:06:00.181Z,13.93
2022-10-14T22:08:30.789Z,12.27
2022-10-14T22:10:57.048Z,10.20
2022-10-14T22:13:23.801Z,12.25
2022-10-14T22:15:50.161Z,6.72
2022-10-14T22:18:16.480Z,9.60
2022-10-14T22:20:42.836Z,7.68
2022-10-14T22:23:09.186Z,10.95
2022-10-14T22:25:35.671Z,9.50
2022-10-14T22:28:02.797Z,13.48
2022-10-14T22:30:29.294Z,9.40
2022-10-14T22:32:55.731Z,11.68
2022-10-14T22:35:22.984Z,14.05
2022-10-14T22:37:49.732Z,12.05
2022-10-14T22:40:16.546Z,10.35
2022-10-14T22:42:43.485Z,7.82
2022-10-14T22:45:10.779Z,9.75
2022-10-14T22:47:37.142Z,10.10
2022-10-14T22:50:03.766Z,13.30
2022-10-14T22:52:30.036Z,18.40
2022-10-14T22:54:56.380Z,12.77
2022-10-14T22:57:22.693Z,15.60
2022-10-14T22:59:48.969Z,11.60
2022-10-14T23:02:15.327Z,13.00
2022-10-14T23:04:42.701Z,15.05
2022-10-14T23:07:09.302Z,10.40
2022-10-14T23:12:06.932Z,9.85
2022-10-14T23:14:33.256Z,10.07
2022-10-14T23:16:59.518Z,11.30
2022-10-14T23:19:25.815Z,9.50
2022-10-14T23:21:52.205Z,10.30
2022-10-14T23:24:18.596Z,9.90
2022-10-14T23:26:44.900Z,9.60
2022-10-14T23:29:11.542Z,12.40
2022-10-14T23:31:38.571Z,11.45
2022-10-14T23:34:06.031Z,10.18
2022-10-14T23:36:32.563Z,9.85
2022-10-14T23:38:58.899Z,9.35
2022-10-14T23:41:25.298Z,8.93
2022-10-14T23:43:51.848Z,6.30
2022-10-14T23:46:18.914Z,10.65
2022-10-14T23:48:51.527Z,8.80
2022-10-14T23:51:27.338Z,7.50
2022-10-14T23:53:53.653Z,10.60
2022-10-14T23:56:19.898Z,7.25
2022-10-14T23:58:46.253Z,6.00
